createdAt,value
2023-01-23T00:01:32.783Z,24.90
2023-01-23T00:04:00.881Z,26.42
2023-01-23T00:06:28.564Z,24.35
2023-01-23T00:08:56.929Z,25.30
2023-01-23T00:11:27.689Z,24.17
2023-01-23T00:13:54.697Z,25.90
2023-01-23T00:16:23.880Z,25.63
2023-01-23T00:18:51.700Z,24.92
2023-01-23T00:21:24.594Z,27.80
2023-01-23T00:23:54.520Z,25.73
2023-01-23T00:26:27.120Z,25.42
2023-01-23T00:28:54.726Z,26.27
2023-01-23T00:31:25.393Z,25.90
2023-01-23T00:33:58.154Z,27.02
2023-01-23T00:36:27.749Z,27.35
2023-01-23T00:38:55.920Z,25.33
2023-01-23T00:41:23.082Z,26.73
2023-01-23T00:43:52.072Z,28.27
2023-01-23T00:46:20.995Z,26.30
2023-01-23T00:48:48.173Z,29.02
2023-01-23T00:51:15.557Z,27.83
2023-01-23T00:53:43.421Z,28.25
2023-01-23T00:56:10.936Z,27.58
2023-01-23T00:58:37.965Z,26.83
2023-01-23T01:01:05.083Z,29.10
2023-01-23T01:03:32.573Z,28.65
2023-01-23T01:06:06.266Z,26.83
2023-01-23T01:08:33.782Z,27.92
2023-01-23T01:11:02.151Z,28.40
2023-01-23T01:13:30.060Z,27.50
2023-01-23T01:15:57.118Z,26.60
2023-01-23T01:18:24.430Z,26.67
2023-01-23T01:20:51.366Z,27.17
2023-01-23T01:23:18.505Z,27.55
2023-01-23T01:25:46.475Z,27.55
2023-01-23T01:28:14.401Z,28.83
2023-01-23T01:30:42.176Z,26.73
2023-01-23T01:33:09.279Z,28.65
2023-01-23T01:35:43.168Z,26.48
2023-01-23T01:38:10.348Z,27.60
2023-01-23T01:40:37.975Z,26.95
2023-01-23T01:43:08.782Z,28.45
2023-01-23T01:46:08.008Z,28.02
2023-01-23T01:48:47.708Z,27.80
2023-01-23T01:51:17.563Z,29.13
2023-01-23T01:53:49.942Z,27.38
2023-01-23T01:56:18.821Z,28.10
2023-01-23T01:58:49.231Z,27.33
2023-01-23T02:01:16.807Z,27.40
2023-01-23T02:03:45.088Z,28.45
2023-01-23T02:06:12.956Z,29.08
2023-01-23T02:09:10.523Z,26.67
2023-01-23T02:11:37.878Z,28.48
2023-01-23T02:14:04.862Z,28.15
2023-01-23T02:16:40.393Z,27.00
2023-01-23T02:19:30.006Z,27.88
2023-01-23T02:22:23.094Z,26.92
2023-01-23T02:25:21.691Z,28.02
2023-01-23T02:27:49.279Z,26.52
2023-01-23T02:30:19.504Z,28.00
2023-01-23T02:32:47.496Z,26.45
2023-01-23T02:35:25.522Z,29.55
2023-01-23T02:38:02.741Z,28.13
2023-01-23T02:40:36.730Z,27.83
2023-01-23T02:43:09.763Z,29.27
2023-01-23T02:45:42.088Z,28.08
2023-01-23T02:48:09.232Z,27.98
2023-01-23T02:50:37.561Z,28.75
2023-01-23T02:53:05.460Z,29.13
2023-01-23T02:55:33.905Z,29.65
2023-01-23T02:58:20.065Z,29.92
2023-01-23T03:00:47.766Z,27.52
2023-01-23T03:03:16.166Z,29.63
2023-01-23T03:05:43.164Z,31.77
2023-01-23T03:08:11.302Z,30.42
2023-01-23T03:10:38.191Z,29.60
2023-01-23T03:13:07.395Z,30.25
2023-01-23T03:15:38.448Z,29.88
2023-01-23T03:18:05.772Z,20.88
2023-01-23T03:20:41.174Z,30.17
2023-01-23T03:23:08.635Z,29.98
2023-01-23T03:25:37.515Z,28.77
2023-01-23T03:28:24.736Z,28.73
2023-01-23T03:30:51.964Z,28.50
2023-01-23T03:33:19.958Z,28.55
2023-01-23T03:35:49.968Z,29.02
2023-01-23T03:38:19.388Z,29.88
2023-01-23T03:41:09.368Z,29.38
2023-01-23T03:43:37.272Z,29.67
2023-01-23T03:46:05.860Z,30.10
2023-01-23T03:48:33.190Z,28.85
2023-01-23T03:51:00.471Z,28.73
2023-01-23T03:53:27.723Z,29.20
2023-01-23T03:56:01.557Z,28.83
2023-01-23T03:58:30.912Z,27.27
2023-01-23T04:00:58.014Z,27.42
2023-01-23T04:03:29.797Z,29.40
2023-01-23T04:06:02.699Z,27.60
2023-01-23T04:08:46.688Z,27.40
2023-01-23T04:11:14.790Z,29.38
2023-01-23T04:13:42.223Z,29.35
2023-01-23T04:16:09.581Z,29.60
2023-01-23T04:18:37.386Z,28.63
2023-01-23T04:21:04.503Z,29.88
2023-01-23T04:23:31.910Z,28.10
2023-01-23T04:25:59.029Z,28.00
2023-01-23T04:28:27.179Z,27.08
2023-01-23T04:30:55.988Z,28.27
2023-01-23T04:33:32.059Z,27.02
2023-01-23T04:36:05.597Z,29.73
2023-01-23T04:38:34.537Z,29.23
2023-01-23T04:41:22.970Z,28.15
2023-01-23T04:43:55.575Z,28.65
2023-01-23T04:46:23.523Z,29.70
2023-01-23T04:48:55.893Z,28.38
2023-01-23T04:51:25.279Z,28.92
2023-01-23T04:53:52.232Z,30.48
2023-01-23T04:56:19.457Z,28.65
2023-01-23T04:58:46.640Z,28.67
2023-01-23T05:01:23.380Z,27.95
2023-01-23T05:03:55.099Z,29.15
2023-01-23T05:06:22.395Z,30.27
2023-01-23T05:08:52.501Z,27.85
2023-01-23T05:11:28.660Z,30.42
2023-01-23T05:13:56.203Z,28.65
2023-01-23T05:16:24.277Z,32.25
2023-01-23T05:19:15.340Z,32.13
2023-01-23T05:21:43.435Z,31.83
2023-01-23T05:24:17.385Z,30.33
2023-01-23T05:26:45.747Z,31.35
2023-01-23T05:29:15.335Z,32.80
2023-01-23T05:31:52.950Z,30.90
2023-01-23T05:34:49.412Z,30.02
2023-01-23T05:37:25.406Z,33.25
2023-01-23T05:39:56.303Z,29.83
2023-01-23T05:42:27.727Z,31.50
2023-01-23T05:45:13.443Z,30.27
2023-01-23T05:47:56.854Z,32.25
2023-01-23T05:50:25.958Z,32.35
2023-01-23T05:52:54.265Z,30.55
2023-01-23T05:55:21.425Z,31.35
2023-01-23T05:57:50.802Z,31.27
2023-01-23T06:00:37.644Z,31.90
2023-01-23T06:03:27.588Z,30.63
2023-01-23T06:06:05.996Z,32.20
2023-01-23T06:08:33.137Z,33.13
2023-01-23T06:11:00.631Z,34.63
2023-01-23T06:13:28.385Z,32.95
2023-01-23T06:15:57.043Z,32.28
2023-01-23T06:18:25.823Z,31.20
2023-01-23T06:20:59.147Z,33.72
2023-01-23T06:23:26.663Z,30.95
2023-01-23T06:25:54.236Z,32.63
2023-01-23T06:28:21.416Z,32.38
2023-01-23T06:30:48.808Z,32.47
2023-01-23T06:36:01.820Z,31.90
2023-01-23T06:38:30.339Z,31.02
2023-01-23T06:41:02.231Z,32.30
2023-01-23T06:43:34.779Z,32.95
2023-01-23T06:46:04.054Z,33.15
2023-01-23T06:48:32.542Z,32.42
2023-01-23T06:51:01.504Z,32.95
2023-01-23T06:53:31.048Z,31.98
2023-01-23T06:56:06.884Z,33.88
2023-01-23T06:59:03.024Z,33.47
2023-01-23T07:01:33.122Z,35.63
2023-01-23T07:04:04.518Z,33.10
2023-01-23T07:06:32.152Z,35.83
2023-01-23T07:08:59.629Z,33.90
2023-01-23T07:11:26.891Z,32.10
2023-01-23T07:13:57.006Z,33.65
2023-01-23T07:16:27.394Z,33.03
2023-01-23T07:19:02.769Z,33.42
2023-01-23T07:21:32.960Z,32.58
2023-01-23T07:24:00.361Z,33.38
2023-01-23T07:32:01.475Z,31.95
2023-01-23T07:34:29.285Z,31.83
2023-01-23T07:36:56.639Z,30.98
2023-01-23T07:39:25.145Z,32.90
2023-01-23T07:41:53.817Z,31.48
2023-01-23T07:44:22.798Z,32.60
2023-01-23T07:46:51.133Z,32.00
2023-01-23T07:49:19.971Z,32.92
2023-01-23T07:51:48.823Z,30.98
2023-01-23T07:54:52.631Z,33.65
2023-01-23T07:57:20.034Z,31.27
2023-01-23T07:59:49.312Z,33.55
2023-01-23T08:02:18.555Z,34.13
2023-01-23T08:04:52.231Z,32.67
2023-01-23T08:07:19.338Z,32.70
2023-01-23T08:09:46.669Z,33.63
2023-01-23T08:12:14.423Z,34.22
2023-01-23T08:14:42.666Z,31.20
2023-01-23T08:17:10.114Z,32.30
2023-01-23T08:19:38.587Z,32.35
2023-01-23T08:22:06.175Z,32.47
2023-01-23T08:24:34.207Z,31.23
2023-01-23T08:27:02.734Z,31.65
2023-01-23T08:29:32.270Z,31.80
2023-01-23T08:32:00.065Z,31.42
2023-01-23T08:34:27.326Z,31.15
2023-01-23T08:36:55.026Z,33.08
2023-01-23T08:39:22.219Z,31.70
2023-01-23T08:41:49.433Z,31.45
2023-01-23T08:44:19.867Z,30.48
2023-01-23T08:46:47.278Z,32.25
2023-01-23T08:49:14.458Z,29.98
2023-01-23T08:51:42.137Z,32.63
2023-01-23T08:54:10.961Z,30.58
2023-01-23T08:56:37.939Z,30.50
2023-01-23T08:59:05.298Z,30.98
2023-01-23T09:01:32.315Z,28.25
2023-01-23T09:03:59.647Z,29.83
2023-01-23T09:06:26.780Z,31.60
2023-01-23T09:08:53.857Z,35.75
2023-01-23T09:11:22.819Z,31.33
2023-01-23T09:13:53.734Z,29.13
2023-01-23T09:16:20.950Z,29.08
2023-01-23T09:18:47.985Z,28.55
2023-01-23T09:21:17.239Z,28.70
2023-01-23T09:23:44.504Z,31.88
2023-01-23T09:26:15.569Z,37.33
2023-01-23T09:28:43.528Z,40.97
2023-01-23T09:31:14.154Z,39.03
2023-01-23T09:33:46.708Z,33.80
2023-01-23T09:36:13.853Z,31.45
2023-01-23T09:38:40.793Z,29.38
2023-01-23T09:41:20.800Z,26.95
2023-01-23T09:44:29.573Z,30.13
2023-01-23T09:47:02.767Z,28.60
2023-01-23T09:49:47.022Z,27.80
2023-01-23T09:52:21.095Z,28.92
2023-01-23T09:55:03.904Z,28.48
2023-01-23T09:57:45.406Z,26.40
2023-01-23T10:00:20.313Z,28.23
2023-01-23T10:02:48.129Z,28.83
2023-01-23T10:05:17.498Z,28.75
2023-01-23T10:07:44.472Z,27.75
2023-01-23T10:10:14.611Z,29.75
2023-01-23T10:12:48.360Z,28.55
2023-01-23T10:15:39.057Z,31.90
2023-01-23T10:18:18.593Z,30.42
2023-01-23T10:20:50.377Z,31.52
2023-01-23T10:23:36.670Z,32.17
2023-01-23T10:26:04.657Z,29.75
2023-01-23T10:28:39.770Z,29.95
2023-01-23T10:31:32.381Z,28.45
2023-01-23T10:34:10.439Z,28.20
2023-01-23T10:36:53.916Z,28.05
2023-01-23T10:39:32.826Z,26.20
2023-01-23T10:42:02.280Z,26.42
2023-01-23T10:44:32.491Z,26.70
2023-01-23T10:47:04.931Z,27.75
2023-01-23T10:49:39.168Z,29.85
2023-01-23T10:52:35.267Z,30.65
2023-01-23T10:55:04.111Z,27.42
2023-01-23T10:57:48.513Z,27.17
2023-01-23T11:00:21.227Z,28.90
2023-01-23T11:02:48.616Z,27.90
2023-01-23T11:05:51.987Z,28.27
2023-01-23T11:08:26.010Z,28.48
2023-01-23T11:10:54.878Z,29.40
2023-01-23T11:13:27.913Z,29.60
2023-01-23T11:15:55.807Z,26.77
2023-01-23T11:19:03.124Z,28.95
2023-01-23T11:21:34.436Z,29.27
2023-01-23T11:24:41.110Z,30.75
2023-01-23T11:27:28.154Z,28.35
2023-01-23T11:30:13.915Z,27.02
2023-01-23T11:32:55.169Z,27.58
2023-01-23T11:35:39.469Z,28.67
2023-01-23T11:38:09.519Z,27.02
2023-01-23T11:40:37.389Z,27.15
2023-01-23T11:43:09.547Z,29.17
2023-01-23T11:48:29.066Z,25.40
2023-01-23T11:51:30.235Z,27.63
2023-01-23T11:54:27.338Z,27.38
2023-01-23T11:57:02.667Z,26.50
2023-01-23T12:00:14.955Z,26.60
2023-01-23T12:03:10.048Z,27.85
2023-01-23T12:05:58.745Z,27.80
2023-01-23T12:08:40.269Z,27.30
2023-01-23T12:11:20.459Z,27.63
2023-01-23T12:14:21.577Z,26.90
2023-01-23T12:16:57.569Z,25.67
2023-01-23T12:19:42.691Z,25.58
2023-01-23T12:22:34.800Z,24.63
2023-01-23T12:25:14.747Z,26.38
2023-01-23T12:27:48.489Z,25.15
2023-01-23T12:30:37.835Z,26.13
2023-01-23T12:33:18.870Z,25.63
2023-01-23T12:36:10.733Z,24.48
2023-01-23T12:38:45.790Z,26.45
2023-01-23T12:41:24.172Z,25.20
2023-01-23T12:44:12.106Z,26.08
2023-01-23T12:46:57.961Z,25.88
2023-01-23T12:49:35.786Z,32.78
2023-01-23T12:52:09.467Z,29.77
2023-01-23T12:54:42.408Z,29.20
2023-01-23T12:57:11.240Z,25.98
2023-01-23T12:59:58.868Z,25.05
2023-01-23T13:02:48.189Z,22.95
2023-01-23T13:05:29.727Z,24.45
2023-01-23T13:08:04.087Z,23.50
2023-01-23T13:10:59.320Z,23.15
2023-01-23T13:13:27.256Z,23.42
2023-01-23T13:16:12.737Z,24.17
2023-01-23T13:18:58.880Z,24.42
2023-01-23T13:21:44.389Z,25.40
2023-01-23T13:24:48.980Z,24.02
2023-01-23T13:27:38.676Z,25.15
2023-01-23T13:30:36.314Z,22.55
2023-01-23T13:33:06.314Z,22.42
2023-01-23T13:35:39.526Z,22.55
2023-01-23T13:38:22.457Z,24.08
2023-01-23T13:41:14.557Z,25.55
2023-01-23T13:43:50.805Z,23.90
2023-01-23T14:24:48.472Z,22.33
2023-01-23T14:27:30.255Z,22.15
2023-01-23T14:29:59.956Z,20.33
2023-01-23T14:32:31.264Z,21.00
2023-01-23T14:34:58.939Z,21.57
2023-01-23T14:37:29.466Z,22.17
2023-01-23T14:40:01.954Z,22.20
2023-01-23T14:42:34.963Z,20.42
2023-01-23T14:45:03.043Z,21.98
2023-01-23T14:47:37.937Z,21.48
2023-01-23T14:50:11.120Z,21.73
2023-01-23T14:52:38.158Z,22.02
2023-01-23T14:55:29.803Z,22.83
2023-01-23T14:58:01.797Z,23.33
2023-01-23T15:00:29.716Z,25.50
2023-01-23T15:02:57.304Z,21.80
2023-01-23T15:05:32.918Z,20.17
2023-01-23T15:08:16.028Z,19.77
2023-01-23T15:10:44.011Z,19.20
2023-01-23T15:13:22.570Z,19.10
2023-01-23T15:15:57.488Z,19.30
2023-01-23T15:18:28.040Z,17.65
2023-01-23T15:21:15.480Z,18.00
2023-01-23T15:24:01.175Z,18.73
2023-01-23T15:26:41.891Z,18.25
2023-01-23T15:29:08.839Z,18.88
2023-01-23T15:31:45.086Z,17.08
2023-01-23T15:34:15.310Z,16.70
2023-01-23T15:37:05.620Z,16.13
2023-01-23T15:39:35.576Z,16.92
2023-01-23T15:42:15.184Z,17.50
2023-01-23T15:44:46.722Z,15.70
2023-01-23T15:47:14.007Z,19.95
2023-01-23T15:49:43.197Z,18.33
2023-01-23T15:52:49.254Z,16.05
2023-01-23T15:55:18.078Z,16.10
2023-01-23T15:57:45.067Z,15.77
2023-01-23T16:00:21.789Z,16.23
2023-01-23T16:02:56.303Z,16.85
2023-01-23T16:05:44.132Z,15.20
2023-01-23T16:08:22.990Z,14.80
2023-01-23T16:10:58.257Z,14.52
2023-01-23T16:13:25.332Z,15.63
2023-01-23T16:15:52.888Z,15.02
2023-01-23T16:18:20.917Z,14.77
2023-01-23T16:20:54.782Z,14.68
2023-01-23T16:23:27.821Z,15.05
2023-01-23T16:25:56.890Z,15.10
2023-01-23T16:31:38.695Z,18.50
2023-01-23T16:34:06.331Z,20.65
2023-01-23T16:36:33.669Z,19.30
2023-01-23T16:39:01.114Z,15.98
2023-01-23T16:41:28.242Z,13.95
2023-01-23T16:43:55.294Z,14.52
2023-01-23T16:46:22.592Z,13.23
2023-01-23T16:48:52.968Z,14.80
2023-01-23T16:51:24.174Z,13.52
2023-01-23T16:53:58.632Z,13.27
2023-01-23T16:56:36.801Z,12.77
2023-01-23T16:59:06.085Z,12.93
2023-01-23T17:01:40.584Z,13.88
2023-01-23T17:04:30.218Z,13.52
2023-01-23T17:06:57.769Z,14.00
2023-01-23T17:21:34.943Z,13.70
2023-01-23T17:24:02.464Z,12.85
2023-01-23T17:26:31.112Z,14.50
2023-01-23T17:29:01.326Z,13.60
2023-01-23T17:37:27.990Z,14.30
2023-01-23T17:39:55.073Z,14.20
2023-01-23T17:42:22.315Z,14.65
2023-01-23T17:44:49.776Z,14.50
2023-01-23T17:47:17.974Z,15.30
2023-01-23T17:49:53.197Z,14.75
2023-01-23T17:52:21.850Z,15.52
2023-01-23T17:54:50.373Z,14.55
2023-01-23T17:57:24.187Z,15.57
2023-01-23T17:59:51.440Z,14.73
2023-01-23T18:02:28.932Z,15.55
2023-01-23T18:04:56.436Z,14.60
2023-01-23T18:07:24.399Z,14.30
2023-01-23T18:09:52.628Z,14.63
2023-01-23T18:12:37.447Z,16.27
2023-01-23T18:15:15.744Z,14.68
2023-01-23T18:17:53.710Z,14.60
2023-01-23T18:20:23.554Z,15.00
2023-01-23T18:22:57.553Z,15.30
2023-01-23T18:25:28.247Z,15.43
2023-01-23T18:27:57.009Z,13.55
2023-01-23T18:30:49.494Z,13.60
2023-01-23T18:34:03.897Z,13.55
2023-01-23T18:37:05.039Z,14.73
2023-01-23T18:39:44.266Z,14.68
2023-01-23T18:43:25.169Z,15.07
2023-01-23T18:45:56.924Z,14.93
2023-01-23T18:48:25.894Z,14.60
2023-01-23T18:51:15.310Z,14.48
2023-01-23T18:53:55.988Z,14.77
2023-01-23T18:56:42.666Z,16.00
2023-01-23T18:59:32.347Z,15.35
2023-01-23T19:02:43.478Z,14.82
2023-01-23T19:05:16.875Z,14.15
2023-01-23T19:07:45.678Z,15.48
2023-01-23T19:10:18.638Z,14.45
2023-01-23T19:12:58.159Z,14.77
2023-01-23T19:15:39.073Z,14.73
2023-01-23T19:18:15.140Z,14.68
2023-01-23T19:21:06.926Z,16.08
2023-01-23T19:23:51.391Z,14.60
2023-01-23T19:26:28.831Z,15.43
2023-01-23T19:28:59.725Z,14.50
2023-01-23T19:31:29.541Z,14.30
2023-01-23T19:33:57.556Z,15.57
2023-01-23T19:36:38.106Z,14.85
2023-01-23T19:39:08.212Z,15.27
2023-01-23T19:41:48.994Z,15.52
2023-01-23T19:44:18.523Z,14.30
2023-01-23T19:46:50.050Z,15.38
2023-01-23T19:49:17.352Z,14.57
2023-01-23T19:51:45.038Z,15.70
2023-01-23T19:54:13.971Z,15.35
2023-01-23T19:56:42.872Z,15.52
2023-01-23T19:59:10.734Z,16.08
2023-01-23T20:01:40.218Z,15.65
2023-01-23T20:07:00.259Z,15.20
2023-01-23T20:09:27.390Z,14.70
2023-01-23T20:11:57.003Z,15.80
2023-01-23T20:14:27.545Z,14.15
2023-01-23T20:16:57.248Z,15.40
2023-01-23T20:19:25.415Z,14.95
2023-01-23T20:21:55.063Z,13.95
2023-01-23T20:24:23.291Z,14.63
2023-01-23T20:26:50.845Z,15.05
2023-01-23T20:29:18.015Z,14.40
2023-01-23T20:31:49.288Z,16.00
2023-01-23T20:34:17.161Z,15.18
2023-01-23T20:36:45.066Z,15.85
2023-01-23T20:39:22.107Z,15.80
2023-01-23T20:41:49.571Z,14.98
2023-01-23T20:44:16.832Z,15.88
2023-01-23T20:46:44.208Z,15.98
2023-01-23T20:49:14.361Z,16.27
2023-01-23T20:51:41.983Z,15.80
2023-01-23T20:54:12.362Z,15.38
2023-01-23T20:56:39.446Z,13.93
2023-01-23T20:59:25.833Z,14.50
2023-01-23T21:02:13.164Z,15.98
2023-01-23T21:04:40.568Z,15.15
2023-01-23T21:07:07.911Z,15.13
2023-01-23T21:09:35.558Z,15.68
2023-01-23T21:12:03.048Z,15.70
2023-01-23T21:14:31.139Z,17.83
2023-01-23T21:16:58.923Z,16.05
2023-01-23T21:19:26.696Z,16.02
2023-01-23T21:21:56.589Z,16.13
2023-01-23T21:24:23.981Z,15.85
2023-01-23T21:26:51.576Z,15.18
2023-01-23T21:29:19.677Z,15.35
2023-01-23T21:31:48.376Z,16.52
2023-01-23T21:34:17.193Z,16.13
2023-01-23T21:36:44.510Z,16.45
2023-01-23T21:39:14.077Z,15.35
2023-01-23T21:41:41.165Z,14.68
2023-01-23T21:44:10.669Z,15.50
2023-01-23T21:46:37.869Z,16.00
2023-01-23T21:49:05.182Z,15.95
2023-01-23T21:51:32.707Z,15.82
2023-01-23T21:53:59.999Z,15.70
2023-01-23T21:56:30.165Z,15.30
2023-01-23T21:58:57.627Z,15.18
2023-01-23T22:01:32.361Z,15.45
2023-01-23T22:04:00.475Z,16.73
2023-01-23T22:06:29.224Z,16.75
2023-01-23T22:08:57.757Z,16.05
2023-01-23T22:11:26.253Z,16.55
2023-01-23T22:13:53.538Z,16.20
2023-01-23T22:16:22.884Z,16.17
2023-01-23T22:18:56.442Z,16.23
2023-01-23T22:21:23.495Z,16.02
2023-01-23T22:23:50.555Z,16.20
2023-01-23T22:26:17.634Z,16.52
2023-01-23T22:28:44.804Z,17.02
2023-01-23T22:31:14.935Z,17.25
2023-01-23T22:33:49.842Z,16.90
2023-01-23T22:36:20.222Z,18.08
2023-01-23T22:39:18.829Z,17.52
2023-01-23T22:41:50.198Z,19.40
2023-01-23T23:00:17.377Z,18.38
2023-01-23T23:03:54.861Z,17.45
2023-01-23T23:06:22.292Z,17.52
2023-01-23T23:08:49.978Z,19.88
2023-01-23T23:11:22.300Z,18.27
2023-01-23T23:13:50.146Z,19.75
2023-01-23T23:16:19.938Z,19.27
2023-01-23T23:18:49.040Z,18.98
2023-01-23T23:21:19.393Z,19.15
2023-01-23T23:23:48.227Z,19.90
2023-01-23T23:26:15.853Z,20.83
2023-01-23T23:28:43.544Z,18.88
2023-01-23T23:31:11.068Z,19.35
2023-01-23T23:33:38.605Z,19.50
2023-01-23T23:36:06.326Z,19.75
2023-01-23T23:38:33.632Z,19.80
2023-01-23T23:41:03.471Z,17.90
2023-01-23T23:43:31.082Z,18.23
2023-01-23T23:46:00.667Z,19.20
2023-01-23T23:48:29.664Z,17.55
2023-01-23T23:50:59.536Z,18.15
2023-01-23T23:53:26.704Z,18.55
2023-01-23T23:55:54.547Z,18.67
2023-01-23T23:58:24.132Z,18.42
